sensor_id;sensor_type;location;lat;lon;timestamp;pressure;altitude;pressure_sealevel;temperature;humidity
56721;BME280;53183;47.412;18.884;2023-10-31T00:01:57;98323.53;;;13.65;92.96
56721;BME280;53183;47.412;18.884;2023-10-31T00:04:26;98325.25;;;13.66;92.71
56721;BME280;53183;47.412;18.884;2023-10-31T00:06:54;98322.84;;;13.63;92.99
56721;BME280;53183;47.412;18.884;2023-10-31T00:09:24;98320.19;;;13.63;93.26
56721;BME280;53183;47.412;18.884;2023-10-31T00:11:52;98319.34;;;13.63;93.08
56721;BME280;53183;47.412;18.884;2023-10-31T00:14:21;98324.78;;;13.61;93.63
56721;BME280;53183;47.412;18.884;2023-10-31T00:16:58;98332.06;;;13.59;93.16
56721;BME280;53183;47.412;18.884;2023-10-31T00:19:26;98316.81;;;13.61;92.25
56721;BME280;53183;47.412;18.884;2023-10-31T00:21:54;98317.66;;;13.61;92.11
56721;BME280;53183;47.412;18.884;2023-10-31T00:24:22;98308.69;;;13.53;92.27
56721;BME280;53183;47.412;18.884;2023-10-31T00:26:49;98305.88;;;13.54;91.73
56721;BME280;53183;47.412;18.884;2023-10-31T00:29:17;98304.56;;;13.49;92.24
56721;BME280;53183;47.412;18.884;2023-10-31T00:31:45;98303.41;;;13.42;91.97
56721;BME280;53183;47.412;18.884;2023-10-31T00:34:12;98293.06;;;13.38;92.35
56721;BME280;53183;47.412;18.884;2023-10-31T00:36:42;98290.41;;;13.38;92.24
56721;BME280;53183;47.412;18.884;2023-10-31T00:39:10;98288.47;;;13.41;91.80
56721;BME280;53183;47.412;18.884;2023-10-31T00:41:38;98289.81;;;13.35;91.88
56721;BME280;53183;47.412;18.884;2023-10-31T00:44:09;98283.72;;;13.23;92.75
56721;BME280;53183;47.412;18.884;2023-10-31T00:46:37;98277.22;;;13.16;93.57
56721;BME280;53183;47.412;18.884;2023-10-31T00:49:04;98274.97;;;13.11;94.32
56721;BME280;53183;47.412;18.884;2023-10-31T00:51:32;98256.09;;;13.26;93.44
56721;BME280;53183;47.412;18.884;2023-10-31T00:57:30;98253.00;;;13.00;95.18
56721;BME280;53183;47.412;18.884;2023-10-31T00:59:58;98256.72;;;12.97;95.26
56721;BME280;53183;47.412;18.884;2023-10-31T01:02:26;98245.88;;;13.00;94.86
56721;BME280;53183;47.412;18.884;2023-10-31T01:04:54;98246.44;;;13.04;93.25
56721;BME280;53183;47.412;18.884;2023-10-31T01:07:21;98238.94;;;13.09;92.29
56721;BME280;53183;47.412;18.884;2023-10-31T01:09:49;98237.41;;;13.27;90.47
56721;BME280;53183;47.412;18.884;2023-10-31T01:12:18;98240.00;;;13.38;88.87
56721;BME280;53183;47.412;18.884;2023-10-31T01:14:46;98230.88;;;13.62;86.07
56721;BME280;53183;47.412;18.884;2023-10-31T01:17:13;98226.88;;;13.68;85.40
56721;BME280;53183;47.412;18.884;2023-10-31T01:19:44;98232.41;;;13.86;83.30
56721;BME280;53183;47.412;18.884;2023-10-31T01:22:12;98224.59;;;13.94;83.58
56721;BME280;53183;47.412;18.884;2023-10-31T01:24:40;98223.47;;;13.87;85.42
56721;BME280;53183;47.412;18.884;2023-10-31T01:27:07;98219.94;;;13.76;87.05
56721;BME280;53183;47.412;18.884;2023-10-31T01:29:36;98220.47;;;13.70;87.48
56721;BME280;53183;47.412;18.884;2023-10-31T01:32:04;98206.88;;;13.64;87.88
56721;BME280;53183;47.412;18.884;2023-10-31T01:34:43;98206.03;;;13.63;88.18
56721;BME280;53183;47.412;18.884;2023-10-31T01:37:12;98201.41;;;13.65;88.45
56721;BME280;53183;47.412;18.884;2023-10-31T01:39:41;98202.94;;;13.58;88.46
56721;BME280;53183;47.412;18.884;2023-10-31T01:42:16;98194.63;;;13.42;89.65
56721;BME280;53183;47.412;18.884;2023-10-31T01:44:45;98196.69;;;13.38;89.67
56721;BME280;53183;47.412;18.884;2023-10-31T01:47:12;98193.66;;;13.43;89.21
56721;BME280;53183;47.412;18.884;2023-10-31T01:53:10;98182.41;;;13.60;86.24
56721;BME280;53183;47.412;18.884;2023-10-31T01:59:07;98187.34;;;13.74;85.82
56721;BME280;53183;47.412;18.884;2023-10-31T02:01:39;98177.84;;;13.72;86.20
56721;BME280;53183;47.412;18.884;2023-10-31T02:04:08;98181.16;;;13.64;86.80
56721;BME280;53183;47.412;18.884;2023-10-31T02:06:35;98169.72;;;13.64;86.63
56721;BME280;53183;47.412;18.884;2023-10-31T02:09:03;98171.28;;;13.66;86.50
56721;BME280;53183;47.412;18.884;2023-10-31T02:11:32;98162.84;;;13.61;86.80
56721;BME280;53183;47.412;18.884;2023-10-31T02:14:01;98157.28;;;13.64;87.10
56721;BME280;53183;47.412;18.884;2023-10-31T02:16:30;98154.63;;;13.64;87.15
56721;BME280;53183;47.412;18.884;2023-10-31T02:18:58;98150.94;;;13.55;87.78
56721;BME280;53183;47.412;18.884;2023-10-31T02:21:27;98152.91;;;13.53;88.30
56721;BME280;53183;47.412;18.884;2023-10-31T02:23:59;98138.94;;;13.51;88.66
56721;BME280;53183;47.412;18.884;2023-10-31T02:26:33;98149.81;;;13.48;88.63
56721;BME280;53183;47.412;18.884;2023-10-31T02:29:01;98156.22;;;13.46;88.48
56721;BME280;53183;47.412;18.884;2023-10-31T02:31:30;98156.50;;;13.43;88.74
56721;BME280;53183;47.412;18.884;2023-10-31T02:33:59;98153.97;;;13.41;88.84
56721;BME280;53183;47.412;18.884;2023-10-31T02:36:28;98158.97;;;13.34;89.62
56721;BME280;53183;47.412;18.884;2023-10-31T02:38:57;98150.47;;;13.41;89.58
56721;BME280;53183;47.412;18.884;2023-10-31T02:44:55;98148.66;;;13.41;89.55
56721;BME280;53183;47.412;18.884;2023-10-31T02:47:23;98149.47;;;13.32;89.68
56721;BME280;53183;47.412;18.884;2023-10-31T02:53:23;98159.94;;;13.33;89.67
56721;BME280;53183;47.412;18.884;2023-10-31T02:55:50;98157.03;;;13.36;89.20
56721;BME280;53183;47.412;18.884;2023-10-31T02:58:18;98155.75;;;13.31;89.66
56721;BME280;53183;47.412;18.884;2023-10-31T03:00:45;98160.91;;;13.32;89.57
56721;BME280;53183;47.412;18.884;2023-10-31T03:03:13;98146.22;;;13.28;89.91
56721;BME280;53183;47.412;18.884;2023-10-31T03:05:41;98149.59;;;13.30;90.05
56721;BME280;53183;47.412;18.884;2023-10-31T03:08:09;98151.16;;;13.33;90.02
56721;BME280;53183;47.412;18.884;2023-10-31T03:10:39;98146.00;;;13.41;89.16
56721;BME280;53183;47.412;18.884;2023-10-31T03:13:07;98148.34;;;13.34;89.22
56721;BME280;53183;47.412;18.884;2023-10-31T03:15:34;98158.66;;;13.28;90.04
56721;BME280;53183;47.412;18.884;2023-10-31T03:18:02;98153.12;;;13.41;88.57
56721;BME280;53183;47.412;18.884;2023-10-31T03:20:30;98147.81;;;13.41;89.14
56721;BME280;53183;47.412;18.884;2023-10-31T03:22:57;98159.16;;;13.43;88.86
56721;BME280;53183;47.412;18.884;2023-10-31T03:25:25;98163.13;;;13.58;87.79
56721;BME280;53183;47.412;18.884;2023-10-31T03:27:56;98173.44;;;13.51;88.85
56721;BME280;53183;47.412;18.884;2023-10-31T03:30:23;98174.41;;;13.50;88.87
56721;BME280;53183;47.412;18.884;2023-10-31T03:32:52;98178.78;;;13.61;89.48
56721;BME280;53183;47.412;18.884;2023-10-31T03:35:21;98182.69;;;13.57;90.51
56721;BME280;53183;47.412;18.884;2023-10-31T03:37:48;98175.50;;;13.48;92.25
56721;BME280;53183;47.412;18.884;2023-10-31T03:40:16;98186.69;;;13.51;92.78
56721;BME280;53183;47.412;18.884;2023-10-31T03:42:43;98188.72;;;13.59;91.28
56721;BME280;53183;47.412;18.884;2023-10-31T03:45:10;98198.09;;;13.42;92.24
56721;BME280;53183;47.412;18.884;2023-10-31T03:47:37;98175.66;;;13.46;94.19
56721;BME280;53183;47.412;18.884;2023-10-31T03:53:35;98176.03;;;13.42;93.86
56721;BME280;53183;47.412;18.884;2023-10-31T03:56:03;98180.97;;;13.25;95.54
56721;BME280;53183;47.412;18.884;2023-10-31T03:58:31;98178.78;;;13.30;95.71
56721;BME280;53183;47.412;18.884;2023-10-31T04:00:59;98183.19;;;13.20;96.95
56721;BME280;53183;47.412;18.884;2023-10-31T04:03:27;98183.03;;;13.22;97.46
56721;BME280;53183;47.412;18.884;2023-10-31T04:05:55;98180.47;;;13.31;95.22
56721;BME280;53183;47.412;18.884;2023-10-31T04:08:23;98179.47;;;13.32;95.13
56721;BME280;53183;47.412;18.884;2023-10-31T04:10:51;98182.03;;;13.34;94.19
56721;BME280;53183;47.412;18.884;2023-10-31T04:13:18;98166.16;;;13.23;94.84
56721;BME280;53183;47.412;18.884;2023-10-31T04:15:46;98173.47;;;13.30;92.83
56721;BME280;53183;47.412;18.884;2023-10-31T04:18:14;98169.72;;;13.33;91.70
56721;BME280;53183;47.412;18.884;2023-10-31T04:20:43;98159.88;;;13.24;94.19
56721;BME280;53183;47.412;18.884;2023-10-31T04:23:11;98163.72;;;13.31;91.32
56721;BME280;53183;47.412;18.884;2023-10-31T04:25:40;98165.63;;;13.29;91.09
56721;BME280;53183;47.412;18.884;2023-10-31T04:28:08;98160.22;;;13.30;90.52
56721;BME280;53183;47.412;18.884;2023-10-31T04:30:35;98159.81;;;13.35;91.00
56721;BME280;53183;47.412;18.884;2023-10-31T04:33:03;98146.28;;;13.38;90.76
56721;BME280;53183;47.412;18.884;2023-10-31T04:35:31;98151.25;;;13.52;90.00
56721;BME280;53183;47.412;18.884;2023-10-31T04:37:58;98147.47;;;13.55;89.98
56721;BME280;53183;47.412;18.884;2023-10-31T04:40:26;98140.28;;;13.46;90.77
56721;BME280;53183;47.412;18.884;2023-10-31T04:42:54;98133.84;;;13.38;91.55
56721;BME280;53183;47.412;18.884;2023-10-31T04:45:22;98137.19;;;13.31;91.31
56721;BME280;53183;47.412;18.884;2023-10-31T04:47:49;98139.59;;;13.13;93.29
56721;BME280;53183;47.412;18.884;2023-10-31T04:53:00;98135.31;;;13.01;94.16
56721;BME280;53183;47.412;18.884;2023-10-31T04:55:32;98124.72;;;13.01;94.02
56721;BME280;53183;47.412;18.884;2023-10-31T04:58:02;98125.44;;;13.12;91.62
56721;BME280;53183;47.412;18.884;2023-10-31T05:00:30;98109.69;;;13.11;91.79
56721;BME280;53183;47.412;18.884;2023-10-31T05:06:28;98106.94;;;13.22;90.79
56721;BME280;53183;47.412;18.884;2023-10-31T05:08:57;98087.19;;;13.26;89.71
56721;BME280;53183;47.412;18.884;2023-10-31T05:11:26;98083.06;;;13.22;90.00
56721;BME280;53183;47.412;18.884;2023-10-31T05:13:54;98069.28;;;13.28;88.85
56721;BME280;53183;47.412;18.884;2023-10-31T05:16:22;98072.72;;;13.19;89.20
56721;BME280;53183;47.412;18.884;2023-10-31T05:18:51;98081.97;;;13.25;89.04
56721;BME280;53183;47.412;18.884;2023-10-31T05:21:21;98098.97;;;13.22;89.36
56721;BME280;53183;47.412;18.884;2023-10-31T05:23:48;98119.88;;;13.15;90.82
56721;BME280;53183;47.412;18.884;2023-10-31T05:26:16;98111.22;;;13.34;88.75
56721;BME280;53183;47.412;18.884;2023-10-31T05:28:45;98126.87;;;13.37;90.25
56721;BME280;53183;47.412;18.884;2023-10-31T05:31:15;98127.88;;;13.96;100.00
56721;BME280;53183;47.412;18.884;2023-10-31T05:33:42;98120.06;;;14.82;100.00
56721;BME280;53183;47.412;18.884;2023-10-31T05:36:23;98129.31;;;15.35;98.78
56721;BME280;53183;47.412;18.884;2023-10-31T05:38:50;98133.87;;;16.07;92.93
56721;BME280;53183;47.412;18.884;2023-10-31T05:41:18;98118.66;;;16.17;82.22
56721;BME280;53183;47.412;18.884;2023-10-31T05:43:45;98107.69;;;16.56;93.66
56721;BME280;53183;47.412;18.884;2023-10-31T05:46:13;98110.66;;;16.53;80.37
56721;BME280;53183;47.412;18.884;2023-10-31T05:48:43;98110.19;;;16.22;79.17
56721;BME280;53183;47.412;18.884;2023-10-31T05:51:13;98100.72;;;15.92;78.00
56721;BME280;53183;47.412;18.884;2023-10-31T05:53:47;98095.09;;;15.77;83.57
56721;BME280;53183;47.412;18.884;2023-10-31T05:56:15;98090.38;;;15.61;82.39
56721;BME280;53183;47.412;18.884;2023-10-31T05:58:45;98096.00;;;15.31;81.47
56721;BME280;53183;47.412;18.884;2023-10-31T06:01:12;98090.63;;;14.93;82.81
56721;BME280;53183;47.412;18.884;2023-10-31T06:03:43;98088.91;;;14.55;84.56
56721;BME280;53183;47.412;18.884;2023-10-31T06:06:12;98082.59;;;14.37;85.99
56721;BME280;53183;47.412;18.884;2023-10-31T06:08:44;98087.63;;;14.20;86.79
56721;BME280;53183;47.412;18.884;2023-10-31T06:11:14;98087.78;;;14.09;88.75
56721;BME280;53183;47.412;18.884;2023-10-31T06:13:56;98086.78;;;14.00;88.53
56721;BME280;53183;47.412;18.884;2023-10-31T06:16:27;98093.91;;;13.90;90.06
56721;BME280;53183;47.412;18.884;2023-10-31T06:19:04;98100.88;;;13.81;89.79
56721;BME280;53183;47.412;18.884;2023-10-31T06:21:35;98106.44;;;13.78;92.10
56721;BME280;53183;47.412;18.884;2023-10-31T06:24:28;98105.72;;;13.67;91.59
56721;BME280;53183;47.412;18.884;2023-10-31T06:27:23;98109.91;;;13.59;92.79
56721;BME280;53183;47.412;18.884;2023-10-31T06:30:13;98118.28;;;13.65;92.62
56721;BME280;53183;47.412;18.884;2023-10-31T06:32:56;98105.47;;;13.70;92.06
56721;BME280;53183;47.412;18.884;2023-10-31T06:35:30;98096.22;;;13.64;93.85
56721;BME280;53183;47.412;18.884;2023-10-31T06:38:04;98103.06;;;13.67;93.37
56721;BME280;53183;47.412;18.884;2023-10-31T06:40:37;98086.59;;;13.73;92.93
56721;BME280;53183;47.412;18.884;2023-10-31T06:43:19;98095.25;;;13.75;92.58
56721;BME280;53183;47.412;18.884;2023-10-31T06:45:49;98100.81;;;13.62;92.48
56721;BME280;53183;47.412;18.884;2023-10-31T06:48:23;98110.47;;;13.63;91.82
56721;BME280;53183;47.412;18.884;2023-10-31T06:50:52;98116.59;;;13.54;92.63
56721;BME280;53183;47.412;18.884;2023-10-31T06:53:20;98120.88;;;13.45;94.00
56721;BME280;53183;47.412;18.884;2023-10-31T06:55:48;98130.25;;;13.40;95.48
56721;BME280;53183;47.412;18.884;2023-10-31T06:58:19;98138.78;;;13.43;95.36
56721;BME280;53183;47.412;18.884;2023-10-31T07:00:50;98134.69;;;13.39;94.65
56721;BME280;53183;47.412;18.884;2023-10-31T07:03:19;98127.22;;;13.54;92.64
56721;BME280;53183;47.412;18.884;2023-10-31T07:05:50;98122.06;;;13.62;92.68
56721;BME280;53183;47.412;18.884;2023-10-31T07:08:22;98130.19;;;13.70;92.07
56721;BME280;53183;47.412;18.884;2023-10-31T07:10:52;98124.91;;;13.80;90.26
56721;BME280;53183;47.412;18.884;2023-10-31T07:13:21;98127.91;;;14.06;88.94
56721;BME280;53183;47.412;18.884;2023-10-31T07:15:53;98126.37;;;14.23;85.90
56721;BME280;53183;47.412;18.884;2023-10-31T07:18:22;98113.66;;;14.26;88.32
56721;BME280;53183;47.412;18.884;2023-10-31T07:20:53;98125.00;;;14.38;86.13
56721;BME280;53183;47.412;18.884;2023-10-31T07:23:22;98134.06;;;14.45;85.07
56721;BME280;53183;47.412;18.884;2023-10-31T07:25:54;98128.22;;;14.51;85.80
56721;BME280;53183;47.412;18.884;2023-10-31T07:28:22;98130.44;;;14.66;85.54
56721;BME280;53183;47.412;18.884;2023-10-31T07:30:50;98119.81;;;14.75;83.48
56721;BME280;53183;47.412;18.884;2023-10-31T07:33:19;98128.16;;;14.90;80.99
56721;BME280;53183;47.412;18.884;2023-10-31T07:35:47;98122.44;;;14.95;81.06
56721;BME280;53183;47.412;18.884;2023-10-31T07:38:14;98122.16;;;14.98;81.77
56721;BME280;53183;47.412;18.884;2023-10-31T07:40:43;98124.81;;;14.98;82.71
56721;BME280;53183;47.412;18.884;2023-10-31T07:43:10;98123.94;;;15.07;81.90
56721;BME280;53183;47.412;18.884;2023-10-31T07:45:39;98123.91;;;15.17;81.83
56721;BME280;53183;47.412;18.884;2023-10-31T07:48:07;98116.03;;;15.25;81.86
56721;BME280;53183;47.412;18.884;2023-10-31T07:50:34;98109.81;;;15.44;80.99
56721;BME280;53183;47.412;18.884;2023-10-31T07:53:01;98112.78;;;15.68;80.97
56721;BME280;53183;47.412;18.884;2023-10-31T07:55:33;98105.38;;;15.90;80.72
56721;BME280;53183;47.412;18.884;2023-10-31T07:58:14;98109.59;;;16.10;78.71
56721;BME280;53183;47.412;18.884;2023-10-31T08:00:43;98106.84;;;16.38;75.89
56721;BME280;53183;47.412;18.884;2023-10-31T08:03:11;98098.88;;;16.64;74.20
56721;BME280;53183;47.412;18.884;2023-10-31T08:05:42;98099.62;;;16.74;73.72
56721;BME280;53183;47.412;18.884;2023-10-31T08:08:14;98090.44;;;16.69;73.83
56721;BME280;53183;47.412;18.884;2023-10-31T08:10:48;98102.56;;;16.63;73.63
56721;BME280;53183;47.412;18.884;2023-10-31T08:13:25;98096.16;;;16.56;73.49
56721;BME280;53183;47.412;18.884;2023-10-31T08:15:58;98105.41;;;16.26;75.23
56721;BME280;53183;47.412;18.884;2023-10-31T08:18:34;98095.72;;;16.25;75.34
56721;BME280;53183;47.412;18.884;2023-10-31T08:21:13;98106.47;;;16.33;75.84
56721;BME280;53183;47.412;18.884;2023-10-31T08:23:49;98108.84;;;16.36;75.79
56721;BME280;53183;47.412;18.884;2023-10-31T08:26:28;98100.22;;;16.42;76.30
56721;BME280;53183;47.412;18.884;2023-10-31T08:28:56;98102.56;;;16.45;75.88
56721;BME280;53183;47.412;18.884;2023-10-31T08:31:26;98101.19;;;16.59;75.58
56721;BME280;53183;47.412;18.884;2023-10-31T08:33:56;98085.28;;;16.49;76.77
56721;BME280;53183;47.412;18.884;2023-10-31T08:36:26;98091.19;;;16.61;75.55
56721;BME280;53183;47.412;18.884;2023-10-31T08:38:53;98092.62;;;16.73;74.88
56721;BME280;53183;47.412;18.884;2023-10-31T08:41:21;98087.72;;;16.78;73.50
56721;BME280;53183;47.412;18.884;2023-10-31T08:43:49;98085.88;;;16.79;72.53
56721;BME280;53183;47.412;18.884;2023-10-31T08:46:24;98082.69;;;17.01;70.77
56721;BME280;53183;47.412;18.884;2023-10-31T08:48:51;98084.38;;;17.10;69.32
56721;BME280;53183;47.412;18.884;2023-10-31T08:51:20;98089.72;;;17.10;70.22
56721;BME280;53183;47.412;18.884;2023-10-31T08:54:03;98078.94;;;17.20;69.20
56721;BME280;53183;47.412;18.884;2023-10-31T08:56:39;98082.56;;;17.45;69.33
56721;BME280;53183;47.412;18.884;2023-10-31T08:59:13;98078.44;;;17.59;67.46
56721;BME280;53183;47.412;18.884;2023-10-31T09:01:49;98069.28;;;17.70;66.46
56721;BME280;53183;47.412;18.884;2023-10-31T09:04:28;98056.28;;;17.75;66.84
56721;BME280;53183;47.412;18.884;2023-10-31T09:07:00;98045.13;;;17.79;65.61
56721;BME280;53183;47.412;18.884;2023-10-31T09:09:31;98046.19;;;17.95;65.54
56721;BME280;53183;47.412;18.884;2023-10-31T09:12:03;98065.56;;;17.97;65.34
56721;BME280;53183;47.412;18.884;2023-10-31T09:14:48;98054.69;;;17.98;64.84
56721;BME280;53183;47.412;18.884;2023-10-31T09:17:17;98051.88;;;18.08;63.76
56721;BME280;53183;47.412;18.884;2023-10-31T09:19:57;98058.41;;;18.30;64.69
56721;BME280;53183;47.412;18.884;2023-10-31T09:22:31;98045.72;;;18.40;63.40
56721;BME280;53183;47.412;18.884;2023-10-31T09:25:12;98044.22;;;18.46;64.31
56721;BME280;53183;47.412;18.884;2023-10-31T09:27:46;98045.38;;;18.60;63.51
56721;BME280;53183;47.412;18.884;2023-10-31T09:30:21;98040.69;;;18.78;62.96
56721;BME280;53183;47.412;18.884;2023-10-31T09:32:53;98026.81;;;18.83;61.82
56721;BME280;53183;47.412;18.884;2023-10-31T09:35:26;98016.94;;;18.83;62.95
56721;BME280;53183;47.412;18.884;2023-10-31T09:37:55;98013.75;;;18.80;62.11
56721;BME280;53183;47.412;18.884;2023-10-31T09:40:27;98014.41;;;18.90;61.65
56721;BME280;53183;47.412;18.884;2023-10-31T09:42:57;98015.56;;;18.87;61.96
56721;BME280;53183;47.412;18.884;2023-10-31T09:45:29;98010.19;;;19.04;60.50
56721;BME280;53183;47.412;18.884;2023-10-31T09:48:00;98000.19;;;18.89;61.76
56721;BME280;53183;47.412;18.884;2023-10-31T09:50:35;98006.19;;;18.91;62.89
56721;BME280;53183;47.412;18.884;2023-10-31T09:53:05;97999.47;;;19.04;60.72
56721;BME280;53183;47.412;18.884;2023-10-31T09:55:40;98001.66;;;19.00;60.00
56721;BME280;53183;47.412;18.884;2023-10-31T09:58:14;97991.81;;;18.92;62.65
56721;BME280;53183;47.412;18.884;2023-10-31T10:00:49;97990.28;;;18.98;61.66
56721;BME280;53183;47.412;18.884;2023-10-31T10:03:26;97966.81;;;19.08;60.40
56721;BME280;53183;47.412;18.884;2023-10-31T10:05:58;97963.28;;;19.08;61.36
56721;BME280;53183;47.412;18.884;2023-10-31T10:08:37;97951.91;;;19.14;60.32
56721;BME280;53183;47.412;18.884;2023-10-31T10:11:06;97941.78;;;19.24;59.63
56721;BME280;53183;47.412;18.884;2023-10-31T10:13:38;97932.50;;;19.43;58.54
56721;BME280;53183;47.412;18.884;2023-10-31T10:16:12;97927.31;;;19.41;59.56
56721;BME280;53183;47.412;18.884;2023-10-31T10:18:47;97918.63;;;19.39;59.83
56721;BME280;53183;47.412;18.884;2023-10-31T10:21:19;97907.19;;;19.45;58.69
56721;BME280;53183;47.412;18.884;2023-10-31T10:23:51;97894.66;;;19.38;61.23
56721;BME280;53183;47.412;18.884;2023-10-31T10:26:21;97878.75;;;19.67;58.63
56721;BME280;53183;47.412;18.884;2023-10-31T10:29:01;97881.50;;;19.97;56.32
56721;BME280;53183;47.412;18.884;2023-10-31T10:31:35;97878.59;;;20.22;58.61
56721;BME280;53183;47.412;18.884;2023-10-31T10:34:13;97869.47;;;20.31;56.58
56721;BME280;53183;47.412;18.884;2023-10-31T10:36:48;97860.97;;;20.27;53.74
56721;BME280;53183;47.412;18.884;2023-10-31T10:39:21;97860.19;;;20.33;55.93
56721;BME280;53183;47.412;18.884;2023-10-31T10:41:56;97869.19;;;20.41;54.76
56721;BME280;53183;47.412;18.884;2023-10-31T10:44:36;97872.63;;;20.34;56.73
56721;BME280;53183;47.412;18.884;2023-10-31T10:47:16;97859.81;;;20.36;55.96
56721;BME280;53183;47.412;18.884;2023-10-31T10:50:15;97857.41;;;20.27;56.02
56721;BME280;53183;47.412;18.884;2023-10-31T10:55:46;97840.50;;;20.41;54.61
56721;BME280;53183;47.412;18.884;2023-10-31T10:58:54;97853.00;;;20.34;55.41
56721;BME280;53183;47.412;18.884;2023-10-31T11:01:26;97848.53;;;20.26;57.44
56721;BME280;53183;47.412;18.884;2023-10-31T11:04:03;97830.50;;;20.20;54.73
56721;BME280;53183;47.412;18.884;2023-10-31T11:06:42;97811.25;;;20.02;55.21
56721;BME280;53183;47.412;18.884;2023-10-31T11:09:13;97808.47;;;19.95;55.91
56721;BME280;53183;47.412;18.884;2023-10-31T11:11:50;97820.38;;;19.78;55.43
56721;BME280;53183;47.412;18.884;2023-10-31T11:14:30;97831.34;;;19.45;55.71
56721;BME280;53183;47.412;18.884;2023-10-31T11:17:34;97857.63;;;18.95;57.54
56721;BME280;53183;47.412;18.884;2023-10-31T11:20:14;97865.19;;;18.36;61.14
56721;BME280;53183;47.412;18.884;2023-10-31T11:22:55;97856.34;;;18.27;61.11
56721;BME280;53183;47.412;18.884;2023-10-31T11:25:46;97840.59;;;18.33;62.72
56721;BME280;53183;47.412;18.884;2023-10-31T11:28:32;97806.63;;;18.49;62.42
56721;BME280;53183;47.412;18.884;2023-10-31T11:31:07;97792.19;;;18.59;62.97
56721;BME280;53183;47.412;18.884;2023-10-31T11:33:47;97764.38;;;18.68;64.89
56721;BME280;53183;47.412;18.884;2023-10-31T11:36:20;97757.78;;;18.87;68.44
56721;BME280;53183;47.412;18.884;2023-10-31T11:39:20;97750.34;;;18.97;68.22
56721;BME280;53183;47.412;18.884;2023-10-31T11:42:03;97746.72;;;18.90;68.92
56721;BME280;53183;47.412;18.884;2023-10-31T11:44:56;97739.41;;;18.84;69.70
56721;BME280;53183;47.412;18.884;2023-10-31T11:47:50;97713.78;;;18.89;69.72
56721;BME280;53183;47.412;18.884;2023-10-31T11:50:30;97709.78;;;18.85;66.34
56721;BME280;53183;47.412;18.884;2023-10-31T11:53:13;97719.00;;;18.83;65.26
56721;BME280;53183;47.412;18.884;2023-10-31T11:55:54;97711.34;;;18.71;65.50
56721;BME280;53183;47.412;18.884;2023-10-31T11:58:25;97713.13;;;18.56;67.43
56721;BME280;53183;47.412;18.884;2023-10-31T12:01:04;97702.34;;;18.41;67.55
56721;BME280;53183;47.412;18.884;2023-10-31T12:03:48;97714.84;;;18.18;65.26
56721;BME280;53183;47.412;18.884;2023-10-31T12:06:28;97698.16;;;18.08;63.40
56721;BME280;53183;47.412;18.884;2023-10-31T12:09:08;97719.91;;;18.04;64.09
56721;BME280;53183;47.412;18.884;2023-10-31T12:11:45;97726.50;;;17.77;70.11
56721;BME280;53183;47.412;18.884;2023-10-31T12:14:26;97736.22;;;17.54;79.19
56721;BME280;53183;47.412;18.884;2023-10-31T12:17:07;97807.72;;;16.77;90.25
56721;BME280;53183;47.412;18.884;2023-10-31T12:19:44;97938.97;;;16.28;89.43
56721;BME280;53183;47.412;18.884;2023-10-31T12:22:19;97959.59;;;15.46;95.90
56721;BME280;53183;47.412;18.884;2023-10-31T12:25:00;98029.91;;;15.16;98.29
56721;BME280;53183;47.412;18.884;2023-10-31T12:30:13;98017.44;;;14.23;100.00
56721;BME280;53183;47.412;18.884;2023-10-31T12:32:41;98019.09;;;14.04;100.00
56721;BME280;53183;47.412;18.884;2023-10-31T12:35:16;98000.41;;;13.87;100.00
56721;BME280;53183;47.412;18.884;2023-10-31T12:37:48;97956.78;;;13.79;100.00
56721;BME280;53183;47.412;18.884;2023-10-31T12:40:18;97968.81;;;13.74;100.00
56721;BME280;53183;47.412;18.884;2023-10-31T12:42:49;97957.06;;;13.76;100.00
56721;BME280;53183;47.412;18.884;2023-10-31T12:45:18;97956.50;;;13.63;100.00
56721;BME280;53183;47.412;18.884;2023-10-31T12:48:00;97949.50;;;13.62;100.00
56721;BME280;53183;47.412;18.884;2023-10-31T12:50:31;97922.41;;;13.58;100.00
56721;BME280;53183;47.412;18.884;2023-10-31T12:53:01;97960.97;;;13.53;100.00
56721;BME280;53183;47.412;18.884;2023-10-31T12:55:39;97996.31;;;13.44;100.00
56721;BME280;53183;47.412;18.884;2023-10-31T12:58:08;98000.91;;;13.51;100.00
56721;BME280;53183;47.412;18.884;2023-10-31T13:00:38;98000.91;;;13.42;100.00
56721;BME280;53183;47.412;18.884;2023-10-31T13:03:08;98011.13;;;13.46;100.00
56721;BME280;53183;47.412;18.884;2023-10-31T13:05:36;98031.78;;;13.43;100.00
56721;BME280;53183;47.412;18.884;2023-10-31T13:08:16;98030.22;;;13.30;100.00
56721;BME280;53183;47.412;18.884;2023-10-31T13:10:44;98006.59;;;13.27;100.00
56721;BME280;53183;47.412;18.884;2023-10-31T13:13:13;98004.22;;;13.24;100.00
56721;BME280;53183;47.412;18.884;2023-10-31T13:15:41;97997.88;;;13.15;100.00
56721;BME280;53183;47.412;18.884;2023-10-31T13:18:09;98014.63;;;13.06;100.00
56721;BME280;53183;47.412;18.884;2023-10-31T13:20:39;98026.03;;;12.97;100.00
56721;BME280;53183;47.412;18.884;2023-10-31T13:23:07;98055.72;;;12.91;100.00
56721;BME280;53183;47.412;18.884;2023-10-31T13:25:40;98063.72;;;12.80;100.00
56721;BME280;53183;47.412;18.884;2023-10-31T13:28:08;98067.97;;;12.61;100.00
56721;BME280;53183;47.412;18.884;2023-10-31T13:30:40;98094.16;;;12.55;100.00
56721;BME280;53183;47.412;18.884;2023-10-31T13:33:09;98098.53;;;12.44;100.00
56721;BME280;53183;47.412;18.884;2023-10-31T13:35:37;98110.09;;;12.43;100.00
56721;BME280;53183;47.412;18.884;2023-10-31T13:38:06;98117.38;;;12.30;100.00
56721;BME280;53183;47.412;18.884;2023-10-31T13:40:34;98140.19;;;12.22;100.00
56721;BME280;53183;47.412;18.884;2023-10-31T13:43:02;98143.44;;;12.14;100.00
56721;BME280;53183;47.412;18.884;2023-10-31T13:45:32;98121.47;;;12.02;100.00